Latest Weather Observations for Hartz Mountains

IDT60801

Issued at 4:32 pm EDT Sunday 22 January 2017 (issued every 30 minutes, with the page automatically refreshed every 10 minutes)

About weather observations | Map of weather stations | Latest weather observations for TAS | Other Formats
Station Details ID: 094191 Name: HARTZ MOUNTAIN (KEOGHS PIMPLE) Lat: -43.20 Lon: 146.77 Height: 831.0 m
Data from the previous 72 hours. | See also: Recent months at Hartz Mountains
Date/Time
EDT
Temp
°C
App
Temp
°C
Dew
Point
°C
Rel
Hum
%
Delta-T
°C
Wind Press
QNH
hPa
Press
MSL
hPa
Rain since
9am
mm
Dir  Spd
km/h
Gust
km/h
Spd
kts
Gust
kts
22/04:30pm 19.0 13.4 8.9 52 5.5 WNW 28 39 15 21 - - 0.2
22/04:00pm 19.0 14.3 10.8 59 4.6 WNW 26 41 14 22 - - 0.2
22/03:30pm 18.5 13.3 10.1 58 4.7 WNW 28 48 15 26 - - 0.2
22/03:14pm 18.9 13.9 11.0 60 4.5 WNW 28 46 15 25 - - 0.2
22/03:00pm 18.8 14.3 11.4 62 4.2 WNW 26 41 14 22 - - 0.2
22/02:30pm 18.4 13.2 11.5 64 3.9 WNW 30 50 16 27 - - 0.2
22/02:07pm 17.2 10.9 8.9 58 4.5 WNW 32 50 17 27 - - 0.2
22/02:00pm 18.0 13.2 11.6 66 3.6 WNW 28 44 15 24 - - 0.2
22/01:31pm 16.9 10.8 9.6 62 4.0 WNW 32 50 17 27 - - 0.2
22/01:30pm 16.5 10.3 9.9 65 3.6 WNW 33 50 18 27 - - 0.2
22/01:02pm 15.7 8.7 10.0 69 3.1 WNW 37 56 20 30 - - 0.2
22/01:00pm 15.4 8.1 10.2 71 2.8 WNW 39 56 21 30 - - 0.2
22/12:30pm 14.7 6.7 8.9 68 3.1 WNW 41 65 22 35 - - 0.2
22/12:03pm 14.7 9.4 9.9 73 2.6 WNW 28 48 15 26 - - 0.2
22/12:00pm 14.8 10.5 9.4 70 2.9 WNW 22 44 12 24 - - 0.2
22/11:30am 14.4 9.7 9.2 71 2.8 W 24 44 13 24 - - 0.0
22/11:05am 13.3 7.0 9.7 79 1.9 WSW 33 52 18 28 - - 0.0
22/11:00am 12.9 6.1 9.2 78 2.0 WSW 35 52 19 28 - - 0.0
22/10:57am 12.6 5.6 8.3 75 2.2 WSW 35 52 19 28 - - 0.0
22/10:30am 12.9 7.5 9.4 79 1.9 W 28 54 15 29 - - 0.0
22/10:06am 11.7 4.8 7.2 74 2.3 W 33 54 18 29 - - 0.0
22/10:00am 11.7 5.0 8.2 79 1.8 WSW 33 48 18 26 - - 0.0
22/09:30am 10.7 1.6 6.6 76 2.0 WSW 44 65 24 35 - - 0.0
22/09:00am 10.1 2.9 6.1 76 1.9 W 33 54 18 29 - - 0.0
22/08:56am 10.1 3.2 6.3 77 1.9 W 32 54 17 29 - - 0.0
22/08:30am 9.4 2.3 5.6 77 1.8 W 32 44 17 24 - - 0.0
22/08:00am 8.5 0.6 6.0 84 1.2 WSW 37 46 20 25 - - 0.0
22/07:30am 8.0 0.1 6.1 88 0.9 WSW 37 44 20 24 - - 0.0
22/07:00am 7.5 0.3 6.1 91 0.7 W 33 41 18 22 - - 0.0
22/06:30am 7.6 -0.3 6.1 90 0.7 W 37 44 20 24 - - 0.0
22/06:00am 7.1 0.1 6.2 94 0.4 W 32 39 17 21 - - 0.0
22/05:30am 7.2 -0.7 6.3 94 0.4 W 37 52 20 28 - - 0.0
22/05:25am 7.2 0.1 6.3 94 0.4 W 33 52 18 28 - - 0.0
22/05:00am 7.1 -0.8 6.2 94 0.4 W 37 54 20 29 - - 0.0
22/04:34am 7.0 -0.9 6.1 94 0.4 W 37 61 20 33 - - 0.0
22/04:30am 7.0 -0.9 6.1 94 0.4 W 37 54 20 29 - - 0.0
22/04:13am 7.1 0.1 6.0 93 0.5 W 32 50 17 27 - - 0.0
22/04:00am 7.2 0.0 6.0 92 0.6 W 33 44 18 24 - - 0.0
22/03:30am 7.3 0.1 6.1 92 0.6 W 33 43 18 23 - - 0.0
22/03:00am 7.1 0.5 6.0 93 0.5 W 30 43 16 23 - - 0.0
22/02:30am 7.1 0.5 6.0 93 0.5 W 30 39 16 21 - - 0.0
22/02:00am 7.2 0.6 6.1 93 0.5 W 30 39 16 21 - - 0.0
22/01:30am 7.5 0.6 6.4 93 0.5 W 32 41 17 22 - - 0.0
22/01:00am 7.5 1.0 6.6 94 0.4 W 30 43 16 23 - - 0.0
22/12:30am 7.5 1.8 6.8 95 0.3 WNW 26 37 14 20 - - 0.0
22/12:00am 7.4 1.7 6.8 96 0.3 WNW 26 41 14 22 - - 0.0
 
Date/Time
EDT
Temp
°C
App
Temp
°C
Dew
Point
°C
Rel
Hum
%
Delta-T
°C
Wind Press
QNH
hPa
Press
MSL
hPa
Rain since
9am
mm
Dir  Spd
km/h
Gust
km/h
Spd
kts
Gust
kts
21/11:30pm 7.3 2.9 6.6 95 0.3 WNW 19 28 10 15 - - 0.0
21/11:00pm 7.3 1.6 6.6 95 0.3 WNW 26 44 14 24 - - 0.0
21/10:30pm 7.3 1.2 6.4 94 0.4 WNW 28 39 15 21 - - 0.0
21/10:00pm 7.6 1.4 6.1 90 0.7 WNW 28 43 15 23 - - 0.0
21/09:30pm 7.6 0.6 5.9 89 0.8 W 32 46 17 25 - - 0.0
21/09:10pm 7.8 1.9 5.9 88 0.9 WNW 26 48 14 26 - - 0.0
21/09:00pm 7.8 2.8 6.3 90 0.7 W 22 41 12 22 - - 0.0
21/08:31pm 8.1 1.1 6.2 88 0.9 W 32 54 17 29 - - 0.0
21/08:30pm 8.1 1.2 6.4 89 0.8 W 32 46 17 25 - - 0.0
21/08:21pm 8.3 0.8 6.4 88 0.9 W 35 54 19 29 - - 0.0
21/08:00pm 8.7 2.9 6.3 85 1.2 W 26 44 14 24 - - 0.0
21/07:37pm 9.0 2.1 6.3 83 1.3 W 32 50 17 27 - - 0.0
21/07:30pm 9.1 3.4 6.5 84 1.3 W 26 43 14 23 - - 0.0
21/07:00pm 9.4 4.1 6.8 84 1.3 W 24 46 13 25 - - 0.0
21/06:42pm 9.6 3.5 6.5 81 1.5 W 28 46 15 25 - - 0.0
21/06:30pm 9.9 4.3 7.2 83 1.3 W 26 41 14 22 - - 0.0
21/06:06pm 10.2 4.2 6.9 80 1.6 W 28 46 15 25 - - 0.0
21/06:00pm 10.2 3.3 6.5 78 1.8 W 32 46 17 25 - - 0.0
21/05:30pm 11.6 5.8 7.9 78 1.9 W 28 48 15 26 - - 0.0
21/05:05pm 10.3 2.9 6.6 78 1.8 W 35 54 19 29 - - 0.0
21/05:00pm 10.3 2.5 6.8 79 1.7 WSW 37 54 20 29 - - 0.0
21/04:59pm 10.3 2.8 6.5 77 1.9 WSW 35 54 19 29 - - 0.0
21/04:30pm 10.0 1.1 6.7 80 1.6 WSW 43 57 23 31 - - 0.0
21/04:00pm 10.6 1.7 6.7 77 1.9 W 43 69 23 37 - - 0.0
21/03:30pm 10.1 -0.6 6.6 79 1.7 WSW 52 70 28 38 - - 0.0
21/03:01pm 10.4 1.4 7.3 81 1.6 W 44 63 24 34 - - 0.0
21/03:00pm 10.4 0.9 6.9 79 1.7 W 46 63 25 34 - - 0.0
21/02:56pm 11.0 1.5 8.4 84 1.3 WSW 48 67 26 36 - - 0.0
21/02:30pm 9.6 0.3 7.4 86 1.1 WSW 46 61 25 33 - - 0.0
21/02:00pm 11.0 3.0 7.5 79 1.8 W 39 70 21 38 - - 0.0
21/01:35pm 10.5 2.3 8.4 87 1.1 WSW 41 59 22 32 - - 0.0
21/01:30pm 9.8 1.1 7.6 86 1.1 WSW 43 59 23 32 - - 0.0
21/01:00pm 9.5 0.3 8.1 91 0.7 W 46 65 25 35 - - 0.0
21/12:46pm 10.0 0.9 8.3 89 0.9 W 46 72 25 39 - - 0.0
21/12:30pm 9.2 -0.3 8.3 94 0.5 WSW 48 61 26 33 - - 0.0
21/12:11pm 9.9 -0.6 9.0 94 0.5 WSW 54 80 29 43 - - 0.0
21/12:00pm 8.7 -1.7 7.9 95 0.4 WSW 52 65 28 35 - - 0.0
21/11:30am 8.3 0.4 7.9 97 0.2 WSW 39 63 21 34 - - 0.0
21/11:00am 8.2 1.4 7.9 98 0.1 W 33 48 18 26 - - 0.0
21/10:30am 7.8 0.2 7.5 98 0.1 W 37 56 20 30 - - 0.0
21/10:00am 7.7 0.8 7.3 97 0.2 WNW 33 54 18 29 - - 0.0
21/09:54am 7.5 0.2 7.1 97 0.2 WNW 35 54 19 29 - - 0.0
21/09:30am 7.5 0.7 7.1 97 0.2 W 32 44 17 24 - - 0.0
21/09:00am 7.2 -0.9 6.9 98 0.1 W 39 57 21 31 - - 7.6
21/08:45am 6.8 -1.4 6.5 98 0.1 W 39 57 21 31 - - 7.6
21/08:30am 6.6 -1.7 6.3 98 0.1 W 39 54 21 29 - - 7.6
21/08:08am 6.3 -0.7 5.9 97 0.2 W 32 57 17 31 - - 7.6
21/08:00am 6.1 -1.1 5.7 97 0.2 W 33 44 18 24 - - 7.6
21/07:30am 6.0 -1.1 5.4 96 0.3 W 32 52 17 28 - - 7.6
21/07:08am 5.9 -2.6 5.0 94 0.4 W 39 57 21 31 - - 7.6
21/07:00am 5.8 -3.1 4.9 94 0.4 W 41 57 22 31 - - 7.6
21/06:30am 5.7 -4.3 4.5 92 0.5 W 46 65 25 35 - - 7.6
21/06:00am 5.4 -3.6 4.4 93 0.4 W 41 65 22 35 - - 7.6
21/05:33am 5.3 -2.6 4.6 95 0.3 W 35 54 19 29 - - 7.6
21/05:30am 5.4 -2.4 4.7 95 0.3 W 35 50 19 27 - - 7.6
21/05:03am 5.5 -2.7 4.6 94 0.4 WSW 37 56 20 30 - - 7.6
21/05:00am 5.4 -2.8 4.5 94 0.4 W 37 52 20 28 - - 7.6
21/04:30am 5.4 -2.4 4.7 95 0.3 WSW 35 46 19 25 - - 7.6
21/04:00am 5.5 -3.5 4.3 92 0.5 WSW 41 65 22 35 - - 7.6
21/03:30am 5.3 -3.0 4.3 93 0.4 W 37 50 20 27 - - 7.6
21/03:00am 5.3 -4.2 4.0 91 0.6 WSW 43 57 23 31 - - 7.6
21/02:30am 5.1 -3.2 4.1 93 0.4 WSW 37 52 20 28 - - 7.6
21/02:21am 5.2 -3.9 4.0 92 0.5 W 41 59 22 32 - - 7.6
21/02:00am 5.2 -4.9 3.9 91 0.6 W 46 63 25 34 - - 7.6
21/01:30am 5.0 -5.9 3.8 92 0.5 WSW 50 63 27 34 - - 7.6
21/01:15am 5.0 -5.1 3.8 92 0.5 WSW 46 69 25 37 - - 7.6
21/01:00am 4.8 -4.0 3.5 91 0.6 W 39 67 21 36 - - 7.6
21/12:35am 4.8 -3.7 3.3 90 0.7 WSW 37 56 20 30 - - 7.6
21/12:30am 4.8 -2.9 3.6 92 0.5 W 33 44 18 24 - - 7.6
21/12:15am 4.8 -2.8 3.9 94 0.4 W 33 52 18 28 - - 7.6
21/12:00am 5.0 -4.1 4.1 94 0.4 WSW 41 50 22 27 - - 7.6
 
Date/Time
EDT
Temp
°C
App
Temp
°C
Dew
Point
°C
Rel
Hum
%
Delta-T
°C
Wind Press
QNH
hPa
Press
MSL
hPa
Rain since
9am
mm
Dir  Spd
km/h
Gust
km/h
Spd
kts
Gust
kts
20/11:30pm 5.1 -4.5 4.4 95 0.3 WSW 44 54 24 29 - - 7.6
20/11:00pm 5.4 -3.1 5.0 97 0.2 WSW 39 52 21 28 - - 7.6
20/10:30pm 5.6 -1.6 5.0 96 0.3 WSW 32 44 17 24 - - 7.6
20/10:00pm 5.6 -2.6 4.9 95 0.3 WSW 37 50 20 27 - - 7.6
20/09:30pm 5.5 -2.3 4.8 95 0.3 WSW 35 48 19 26 - - 7.6
20/09:07pm 5.5 -1.7 4.8 95 0.3 WSW 32 50 17 27 - - 7.4
20/09:00pm 5.6 -1.8 5.0 96 0.3 WSW 33 48 18 26 - - 7.4
20/08:30pm 5.7 -0.7 5.3 97 0.2 WSW 28 39 15 21 - - 7.4
20/08:00pm 6.4 -1.5 6.0 97 0.2 WSW 37 56 20 30 - - 7.4
20/07:48pm 6.6 -0.4 6.0 96 0.3 WSW 32 52 17 28 - - 7.4
20/07:30pm 6.9 1.5 6.3 96 0.3 SW 24 39 13 21 - - 7.4
20/07:00pm 7.1 1.4 6.7 97 0.2 SW 26 41 14 22 - - 7.4
20/06:30pm 7.3 2.0 6.6 95 0.3 WSW 24 33 13 18 - - 7.4
20/06:00pm 7.6 3.0 6.5 93 0.5 SW 20 35 11 19 - - 7.4
20/05:30pm 7.9 2.1 6.4 90 0.7 SW 26 37 14 20 - - 7.4
20/05:00pm 8.0 2.7 6.8 92 0.6 SW 24 35 13 19 - - 7.4
20/04:30pm 8.3 3.8 7.1 92 0.6 SW 20 28 11 15 - - 7.2
20/04:00pm 8.4 4.2 7.6 95 0.4 SSW 19 24 10 13 - - 7.2
20/03:30pm 8.1 3.8 7.2 94 0.4 SSW 19 24 10 13 - - 7.2
20/03:00pm 8.9 7.0 7.7 92 0.6 SW 7 11 4 6 - - 7.2
20/02:30pm 9.1 8.4 8.5 96 0.3 WSW 2 15 1 8 - - 6.8
20/02:00pm 8.3 5.6 7.5 95 0.4 ESE 11 17 6 9 - - 6.6
20/01:30pm 8.4 5.8 7.6 95 0.4 E 11 17 6 9 - - 6.6
20/01:00pm 9.1 6.6 8.3 95 0.4 ESE 11 15 6 8 - - 6.6
20/12:30pm 8.6 5.6 7.8 95 0.4 SE 13 17 7 9 - - 6.4
20/12:00pm 7.7 4.2 7.0 95 0.3 SE 15 17 8 9 - - 5.8
20/11:30am 7.2 3.9 6.6 96 0.3 SE 13 17 7 9 - - 5.0
20/11:00am 7.2 4.3 6.6 96 0.3 SE 11 17 6 9 - - 4.2
20/10:30am 7.1 5.9 6.5 96 0.3 ESE 2 7 1 4 - - 2.4
20/10:00am 6.7 3.3 6.0 95 0.3 SSE 13 17 7 9 - - 1.6
20/09:30am 6.5 2.7 5.9 96 0.3 SSE 15 17 8 9 - - 0.8
20/09:00am 6.5 3.5 5.9 96 0.3 SE 11 15 6 8 - - 9.8
20/08:30am 6.3 3.2 5.6 95 0.3 SE 11 17 6 9 - - 9.0
20/08:00am 6.2 2.4 5.6 96 0.3 SSE 15 20 8 11 - - 8.4
20/07:30am 6.2 3.5 5.6 96 0.3 SE 9 13 5 7 - - 7.6
20/07:00am 6.1 3.0 5.5 96 0.3 SE 11 15 6 8 - - 6.8
20/06:30am 6.0 2.9 5.4 96 0.3 SSE 11 13 6 7 - - 5.8
20/06:00am 6.0 4.9 5.3 95 0.3 CALM 0 0 0 0 - - 3.4
20/05:30am 6.1 4.3 5.2 94 0.4 NNE 4 11 2 6 - - 1.8
20/05:00am 6.2 2.7 5.3 94 0.4 W 13 17 7 9 - - 1.8
20/04:30am 6.5 1.0 6.1 97 0.2 W 24 28 13 15 - - 1.6
20/04:00am 6.5 2.7 5.9 96 0.3 NW 15 20 8 11 - - 0.8
20/03:30am 6.4 3.0 5.7 95 0.3 N 13 15 7 8 - - 0.4
20/03:00am 6.5 3.8 5.6 94 0.4 NW 9 15 5 8 - - 0.0
20/02:30am 6.6 4.5 5.6 93 0.5 NNW 6 9 3 5 - - 0.0
20/02:00am 6.5 4.7 5.6 94 0.4 NE 4 9 2 5 - - 0.0
20/01:30am 6.4 3.7 5.5 94 0.4 ENE 9 13 5 7 - - 0.0
20/01:00am 6.3 3.6 5.4 94 0.4 ENE 9 13 5 7 - - 0.0
20/12:30am 6.3 3.6 5.4 94 0.4 ENE 9 15 5 8 - - 0.0
20/12:00am 6.1 2.9 5.2 94 0.4 E 11 17 6 9 - - 0.0
 
Date/Time
EDT
Temp
°C
App
Temp
°C
Dew
Point
°C
Rel
Hum
%
Delta-T
°C
Wind Press
QNH
hPa
Press
MSL
hPa
Rain since
9am
mm
Dir  Spd
km/h
Gust
km/h
Spd
kts
Gust
kts
19/11:30pm 5.9 1.9 5.0 94 0.4 E 15 24 8 13 - - 0.0
19/11:00pm 5.8 1.8 4.9 94 0.4 E 15 20 8 11 - - 0.0
19/10:30pm 6.0 2.0 5.1 94 0.4 ESE 15 20 8 11 - - 0.0
19/10:00pm 6.1 1.8 5.1 93 0.5 ESE 17 20 9 11 - - 0.0
19/09:30pm 6.1 1.4 5.1 93 0.5 ESE 19 24 10 13 - - 0.0
19/09:00pm 6.0 1.0 4.8 92 0.5 ESE 20 26 11 14 - - 0.0
19/08:30pm 6.5 1.7 4.7 88 0.8 SE 19 26 10 14 - - 0.0
19/08:00pm 7.1 2.1 4.6 84 1.1 ESE 20 26 11 14 - - 0.0
19/07:30pm 8.3 3.9 4.5 77 1.8 ESE 17 26 9 14 - - 0.0
19/07:00pm 9.4 5.0 4.8 73 2.2 ESE 17 24 9 13 - - 0.0
19/06:30pm 10.8 6.5 5.1 68 2.7 ESE 17 28 9 15 - - 0.0
19/06:00pm 11.7 7.3 4.7 62 3.3 ENE 17 22 9 12 - - 0.0
19/05:30pm 12.7 8.7 6.7 67 3.0 E 17 28 9 15 - - 0.0
19/05:00pm 12.2 7.4 4.9 61 3.5 ENE 19 30 10 16 - - 0.0

Other Formats:

Comma delimited format used in spreadsheet applications
http://www.bom.gov.au/fwo/IDT60801/IDT60801.94977.axf

JavaScript Object Notation format (JSON) in row-major order
http://www.bom.gov.au/fwo/IDT60801/IDT60801.94977.json